createdAt,value
2022-08-18T00:02:28.876Z,97970.19
2022-08-18T00:04:58.359Z,97959.94
2022-08-18T00:07:29.898Z,97953.06
2022-08-18T00:09:58.599Z,97950.75
2022-08-18T00:12:33.382Z,97951.97
2022-08-18T00:15:05.599Z,97946.78
2022-08-18T00:17:34.335Z,97940.06
2022-08-18T00:20:02.139Z,97931.47
2022-08-18T00:22:29.208Z,97940.06
2022-08-18T00:24:58.615Z,97935.78
2022-08-18T00:27:29.756Z,97933.28
2022-08-18T00:30:01.149Z,97923.59
2022-08-18T00:32:36.143Z,97913.56
2022-08-18T00:35:13.744Z,97916.63
2022-08-18T00:37:42.587Z,97914.97
2022-08-18T00:40:14.339Z,97910.94
2022-08-18T00:42:49.396Z,97907.63
2022-08-18T00:45:36.590Z,97899.13
2022-08-18T00:48:10.359Z,97901.31
2022-08-18T00:50:45.266Z,97908.47
2022-08-18T00:53:34.849Z,97907.72
2022-08-18T00:56:12.330Z,97910.47
2022-08-18T00:58:46.220Z,97908.63
2022-08-18T01:01:17.449Z,97900.72
2022-08-18T01:03:46.061Z,97903.41
2022-08-18T01:06:27.125Z,97905.34
2022-08-18T01:08:55.940Z,97907.53
2022-08-18T01:11:23.489Z,97889.16
2022-08-18T01:13:50.919Z,97887.56
2022-08-18T01:16:37.280Z,97888.63
2022-08-18T01:19:23.771Z,97879.69
2022-08-18T01:21:59.434Z,97889.13
2022-08-18T01:24:54.721Z,97886.22
2022-08-18T01:27:22.149Z,97882.41
2022-08-18T01:29:50.922Z,97883.22
2022-08-18T01:32:22.713Z,97873.97
2022-08-18T01:34:51.954Z,97868.63
2022-08-18T01:37:23.283Z,97863.53
2022-08-18T01:41:17.682Z,97867.03
2022-08-18T01:42:39.470Z,97854.66
2022-08-18T01:45:08.401Z,97842.22
2022-08-18T01:47:47.713Z,97852.38
2022-08-18T01:50:17.467Z,97841.06
2022-08-18T01:52:44.577Z,97835.72
2022-08-18T01:55:11.635Z,97840.63
2022-08-18T01:57:44.977Z,97835.28
2022-08-18T02:00:16.098Z,97835.66
2022-08-18T02:02:43.588Z,97825.91
2022-08-18T02:05:21.120Z,97811.31
2022-08-18T02:07:48.223Z,97802.22
2022-08-18T02:10:21.119Z,97805.47
2022-08-18T02:12:48.226Z,97800.63
2022-08-18T02:15:15.215Z,97803.81
2022-08-18T02:17:45.418Z,97804.34
2022-08-18T02:20:16.434Z,97803.88
2022-08-18T02:22:44.176Z,97805.59
2022-08-18T02:25:11.857Z,97790.50
2022-08-18T02:27:38.947Z,97791.31
2022-08-18T02:30:13.652Z,97783.19
2022-08-18T02:32:41.463Z,97799.91
2022-08-18T02:35:11.684Z,97805.56
2022-08-18T02:37:42.304Z,97809.63
2022-08-18T02:40:15.135Z,97812.03
2022-08-18T02:42:45.480Z,97810.19
2022-08-18T02:45:14.096Z,97801.81
2022-08-18T02:47:41.356Z,97783.22
2022-08-18T02:50:11.495Z,97786.97
2022-08-18T02:52:40.485Z,97784.59
2022-08-18T02:55:08.893Z,97783.50
2022-08-18T02:57:36.214Z,97782.94
2022-08-18T03:00:04.638Z,97792.13
2022-08-18T03:02:32.403Z,97801.28
2022-08-18T03:04:59.505Z,97805.59
2022-08-18T03:07:26.569Z,97804.78
2022-08-18T03:09:53.692Z,97803.19
2022-08-18T03:12:20.639Z,97811.53
2022-08-18T03:14:47.795Z,97813.13
2022-08-18T03:17:15.122Z,97813.13
2022-08-18T03:19:44.997Z,97815.59
2022-08-18T03:22:27.451Z,97820.19
2022-08-18T03:24:56.090Z,97813.41
2022-08-18T03:27:23.151Z,97812.91
2022-08-18T03:29:51.218Z,97811.56
2022-08-18T03:32:18.802Z,97801.59
2022-08-18T03:34:45.911Z,97807.81
2022-08-18T03:37:15.876Z,97813.16
2022-08-18T03:39:43.060Z,97810.47
2022-08-18T03:42:10.410Z,97804.03
2022-08-18T03:44:37.503Z,97796.47
2022-08-18T03:47:09.875Z,97798.34
2022-08-18T03:49:38.617Z,97804.00
2022-08-18T03:52:10.302Z,97798.59
2022-08-18T03:54:38.898Z,97802.63
2022-08-18T03:57:10.559Z,97795.88
2022-08-18T03:59:38.215Z,97791.28
2022-08-18T04:02:05.553Z,97794.03
2022-08-18T04:04:33.051Z,97784.03
2022-08-18T04:07:11.261Z,97788.09
2022-08-18T04:09:39.134Z,97783.53
2022-08-18T04:12:15.454Z,97774.91
2022-08-18T04:14:48.764Z,97762.75
2022-08-18T04:17:25.185Z,97775.13
2022-08-18T04:19:56.962Z,97790.22
2022-08-18T04:22:25.010Z,97780.78
2022-08-18T04:24:52.551Z,97784.59
2022-08-18T04:27:21.623Z,97793.75
2022-08-18T04:29:48.600Z,97804.00
2022-08-18T04:32:15.924Z,97802.13
2022-08-18T04:34:42.985Z,97795.94
2022-08-18T04:37:10.907Z,97789.47
2022-08-18T04:39:38.255Z,97793.25
2022-08-18T04:42:06.088Z,97792.97
2022-08-18T04:44:34.501Z,97796.22
2022-08-18T04:47:02.206Z,97801.88
2022-08-18T04:49:30.350Z,97799.97
2022-08-18T04:52:36.137Z,97800.78
2022-08-18T04:55:04.047Z,97809.97
2022-08-18T04:57:35.053Z,97811.03
2022-08-18T05:00:06.104Z,97813.72
2022-08-18T05:02:33.596Z,97831.50
2022-08-18T05:05:03.569Z,97837.44
2022-08-18T05:07:30.999Z,97837.97
2022-08-18T05:09:58.207Z,97844.72
2022-08-18T05:12:26.477Z,97840.13
2022-08-18T05:14:54.455Z,97843.63
2022-08-18T05:17:21.608Z,97842.53
2022-08-18T05:19:49.733Z,97847.94
2022-08-18T05:22:28.787Z,97847.66
2022-08-18T05:24:58.704Z,97840.66
2022-08-18T05:27:25.728Z,97840.91
2022-08-18T05:29:52.834Z,97827.72
2022-08-18T05:32:42.573Z,97819.66
2022-08-18T05:35:18.945Z,97809.41
2022-08-18T05:38:30.123Z,97815.63
2022-08-18T05:41:29.971Z,97815.88
2022-08-18T05:43:58.722Z,97813.72
2022-08-18T05:46:54.973Z,97809.13
2022-08-18T05:49:25.011Z,97813.16
2022-08-18T05:52:04.458Z,97828.53
2022-08-18T05:55:00.324Z,97825.56
2022-08-18T05:57:32.425Z,97803.22
2022-08-18T06:00:00.154Z,97807.78
2022-08-18T06:02:34.909Z,97814.78
2022-08-18T06:05:16.585Z,97807.78
2022-08-18T06:07:51.769Z,97809.41
2022-08-18T06:10:19.209Z,97814.25
2022-08-18T06:12:53.633Z,97822.34
2022-08-18T06:16:06.366Z,97829.88
2022-08-18T06:19:00.202Z,97838.50
2022-08-18T06:21:30.100Z,97852.53
2022-08-18T06:24:12.050Z,97862.75
2022-08-18T06:26:56.226Z,97861.69
2022-08-18T06:29:34.896Z,97856.81
2022-08-18T06:32:53.524Z,97857.38
2022-08-18T06:35:44.760Z,97851.97
2022-08-18T06:38:39.435Z,97855.19
2022-08-18T06:41:43.864Z,97849.81
2022-08-18T06:44:32.435Z,97850.09
2022-08-18T06:47:06.430Z,97855.22
2022-08-18T06:50:00.346Z,97859.50
2022-08-18T06:52:36.011Z,97854.94
2022-08-18T06:55:16.504Z,97853.03
2022-08-18T06:58:00.647Z,97853.84
2022-08-18T07:00:32.416Z,97853.03
2022-08-18T07:03:16.849Z,97856.31
2022-08-18T07:06:26.441Z,97853.59
2022-08-18T07:08:57.119Z,97860.03
2022-08-18T07:11:30.273Z,97853.56
2022-08-18T07:14:17.025Z,97853.50
2022-08-18T07:16:58.304Z,97841.44
2022-08-18T07:19:30.009Z,97843.88
2022-08-18T07:22:12.176Z,97837.66
2022-08-18T07:24:47.170Z,97836.84
2022-08-18T07:27:39.285Z,97836.06
2022-08-18T07:30:15.439Z,97843.59
2022-08-18T07:32:54.912Z,97852.78
2022-08-18T07:35:35.475Z,97854.41
2022-08-18T07:38:57.194Z,97850.91
2022-08-18T07:41:35.645Z,97853.28
2022-08-18T07:44:21.211Z,97848.16
2022-08-18T07:46:57.275Z,97853.03
2022-08-18T07:49:27.768Z,97851.41
2022-08-18T07:52:24.221Z,97856.81
2022-08-18T07:55:38.363Z,97867.59
2022-08-18T07:58:11.238Z,97878.13
2022-08-18T08:00:59.683Z,97876.78
2022-08-18T08:03:44.749Z,97889.69
2022-08-18T08:06:29.557Z,97897.75
2022-08-18T08:09:26.409Z,97906.38
2022-08-18T08:12:31.240Z,97915.91
2022-08-18T08:15:45.699Z,97905.22
2022-08-18T08:18:53.074Z,97902.06
2022-08-18T08:21:23.662Z,97899.41
2022-08-18T08:23:55.637Z,97898.63
2022-08-18T08:26:44.979Z,97889.97
2022-08-18T08:29:42.562Z,97905.34
2022-08-18T08:32:37.637Z,97931.94
2022-08-18T08:35:49.034Z,97923.00
2022-08-18T08:38:43.013Z,97930.34
2022-08-18T08:41:31.666Z,97901.66
2022-08-18T08:44:33.204Z,97873.19
2022-08-18T08:47:12.964Z,97854.59
2022-08-18T08:50:00.960Z,97848.16
2022-08-18T08:52:40.361Z,97835.75
2022-08-18T08:55:25.706Z,97825.78
2022-08-18T08:58:13.311Z,97838.94
2022-08-18T09:00:42.743Z,97852.00
2022-08-18T09:03:31.772Z,97858.44
2022-08-18T09:06:38.301Z,97848.22
2022-08-18T09:09:26.551Z,97847.94
2022-08-18T09:12:44.810Z,97848.72
2022-08-18T09:15:30.643Z,97860.34
2022-08-18T09:19:02.939Z,97841.47
2022-08-18T09:22:03.954Z,97850.09
2022-08-18T09:24:41.430Z,97827.19
2022-08-18T09:28:07.335Z,97811.03
2022-08-18T09:34:13.731Z,97831.34
2022-08-18T09:37:09.133Z,97836.88
2022-08-18T09:41:01.173Z,97835.81
2022-08-18T09:43:39.295Z,97827.69
2022-08-18T09:46:08.723Z,97838.47
2022-08-18T09:48:43.135Z,97844.44
2022-08-18T09:51:19.263Z,97848.09
2022-08-18T09:53:46.218Z,97840.66
2022-08-18T09:56:54.321Z,97846.00
2022-08-18T09:59:35.170Z,97841.72
2022-08-18T10:02:20.204Z,97842.72
2022-08-18T10:04:50.568Z,97842.72
2022-08-18T10:07:43.365Z,97857.34
2022-08-18T10:13:57.102Z,97842.53
2022-08-18T10:17:16.045Z,97845.25
2022-08-18T10:20:25.918Z,97821.53
2022-08-18T10:22:55.137Z,97809.94
2022-08-18T10:25:47.712Z,97802.25
2022-08-18T10:28:51.966Z,97799.63
2022-08-18T10:31:19.306Z,97810.63
2022-08-18T10:34:16.861Z,97807.13
2022-08-18T10:37:02.120Z,97799.94
2022-08-18T10:39:41.139Z,97790.78
2022-08-18T10:42:23.587Z,97786.44
2022-08-18T10:45:59.481Z,97768.97
2022-08-18T10:48:34.727Z,97742.75
2022-08-18T10:51:58.078Z,97727.97
2022-08-18T10:54:51.964Z,97753.50
2022-08-18T10:57:54.998Z,97764.44
2022-08-18T11:00:25.769Z,97779.63
2022-08-18T11:03:02.018Z,97771.66
2022-08-18T11:05:32.978Z,97758.84
2022-08-18T11:08:15.766Z,97749.09
2022-08-18T11:11:24.878Z,97752.56
2022-08-18T11:14:04.952Z,97760.41
2022-08-18T11:16:42.585Z,97748.72
2022-08-18T11:19:14.361Z,97751.25
2022-08-18T11:24:45.091Z,97750.97
2022-08-18T11:27:25.760Z,97754.44
2022-08-18T11:29:53.744Z,97742.34
2022-08-18T11:32:26.393Z,97745.09
2022-08-18T11:35:02.233Z,97748.69
2022-08-18T11:41:10.489Z,97748.50
2022-08-18T11:43:41.667Z,97740.09
2022-08-18T11:46:29.523Z,97751.06
2022-08-18T11:49:01.309Z,97745.19
2022-08-18T11:51:34.019Z,97732.25
2022-08-18T11:57:53.101Z,97730.22
2022-08-18T12:01:01.511Z,97714.56
2022-08-18T12:03:44.836Z,97719.53
2022-08-18T12:06:32.281Z,97711.78
2022-08-18T12:10:17.985Z,97719.44
2022-08-18T12:12:35.018Z,97703.88
2022-08-18T12:15:17.481Z,97698.78
2022-08-18T12:17:52.867Z,97699.56
2022-08-18T12:20:22.586Z,97697.25
2022-08-18T12:22:50.841Z,97679.34
2022-08-18T12:28:10.947Z,97681.72
2022-08-18T12:30:38.246Z,97672.72
2022-08-18T12:33:10.526Z,97681.03
2022-08-18T12:35:41.923Z,97681.69
2022-08-18T12:38:13.301Z,97682.47
2022-08-18T12:40:41.881Z,97665.28
2022-08-18T12:43:09.283Z,97659.75
2022-08-18T12:45:37.353Z,97665.00
2022-08-18T12:48:06.827Z,97671.44
2022-08-18T12:50:50.101Z,97666.16
2022-08-18T12:53:29.423Z,97648.91
2022-08-18T12:56:31.679Z,97638.03
2022-08-18T12:59:07.650Z,97629.94
2022-08-18T13:01:39.820Z,97630.34
2022-08-18T13:06:59.814Z,97612.78
2022-08-18T13:09:53.995Z,97616.81
2022-08-18T13:12:23.994Z,97614.19
2022-08-18T13:14:55.111Z,97597.34
2022-08-18T13:17:30.432Z,97598.63
2022-08-18T13:20:09.770Z,97586.53
2022-08-18T13:22:40.203Z,97600.91
2022-08-18T13:25:11.511Z,97604.97
2022-08-18T13:27:43.662Z,97604.09
2022-08-18T13:30:29.131Z,97604.56
2022-08-18T13:33:06.137Z,97602.63
2022-08-18T13:35:53.991Z,97600.81
2022-08-18T13:38:27.705Z,97606.19
2022-08-18T13:40:59.897Z,97605.84
2022-08-18T13:43:35.921Z,97610.91
2022-08-18T13:46:06.714Z,97599.53
2022-08-18T13:48:36.598Z,97597.38
2022-08-18T13:51:05.169Z,97596.75
2022-08-18T13:53:32.302Z,97591.03
2022-08-18T13:55:59.689Z,97586.94
2022-08-18T13:58:28.966Z,97575.81
2022-08-18T14:01:22.697Z,97579.44
2022-08-18T14:03:48.000Z,97574.59
2022-08-18T14:06:22.001Z,97579.09
2022-08-18T14:08:53.570Z,97571.41
2022-08-18T14:11:27.569Z,97575.22
2022-08-18T14:13:55.686Z,97573.22
2022-08-18T14:16:26.883Z,97561.81
2022-08-18T14:19:14.040Z,97563.47
2022-08-18T14:22:11.095Z,97569.50
2022-08-18T14:25:00.313Z,97573.00
2022-08-18T14:27:35.373Z,97583.25
2022-08-18T14:30:11.751Z,97581.09
2022-08-18T14:32:48.878Z,97577.88
2022-08-18T14:36:03.827Z,97580.53
2022-08-18T14:38:07.155Z,97580.78
2022-08-18T14:40:41.876Z,97579.22
2022-08-18T14:43:14.106Z,97574.97
2022-08-18T14:45:48.700Z,97569.16
2022-08-18T14:48:20.313Z,97572.22
2022-08-18T14:50:52.422Z,97567.16
2022-08-18T14:53:23.972Z,97572.72
2022-08-18T14:55:52.773Z,97579.25
2022-08-18T14:58:28.755Z,97582.50
2022-08-18T15:01:08.532Z,97577.75
2022-08-18T15:03:38.965Z,97583.38
2022-08-18T15:06:07.605Z,97585.25
2022-08-18T15:08:42.657Z,97581.56
2022-08-18T15:11:12.043Z,97580.34
2022-08-18T15:13:43.616Z,97582.94
2022-08-18T15:16:14.869Z,97586.88
2022-08-18T15:18:46.845Z,97584.25
2022-08-18T15:21:38.490Z,97581.03
2022-08-18T15:24:26.604Z,97583.72
2022-08-18T15:26:57.634Z,97587.69
2022-08-18T15:29:31.025Z,97580.88
2022-08-18T15:32:05.803Z,97580.16
2022-08-18T15:34:47.166Z,97587.94
2022-08-18T15:37:22.146Z,97581.38
2022-08-18T15:40:05.308Z,97579.16
2022-08-18T15:42:33.202Z,97584.09
2022-08-18T15:45:11.715Z,97573.19
2022-08-18T15:47:41.921Z,97583.34
2022-08-18T15:50:25.383Z,97577.00
2022-08-18T15:52:59.386Z,97575.09
2022-08-18T15:55:29.665Z,97576.94
2022-08-18T15:58:03.173Z,97566.31
2022-08-18T16:00:43.817Z,97572.16
2022-08-18T16:03:15.247Z,97568.19
2022-08-18T16:05:55.076Z,97578.88
2022-08-18T16:08:25.207Z,97568.94
2022-08-18T16:10:54.984Z,97565.38
2022-08-18T16:13:24.541Z,97563.41
2022-08-18T16:15:52.260Z,97560.28
2022-08-18T16:18:21.295Z,97555.84
2022-08-18T16:20:52.665Z,97557.75
2022-08-18T16:23:20.125Z,97558.66
2022-08-18T16:25:47.141Z,97564.59
2022-08-18T16:28:14.198Z,97562.78
2022-08-18T16:30:42.051Z,97559.91
2022-08-18T16:33:09.596Z,97557.78
2022-08-18T16:35:37.578Z,97555.75
2022-08-18T16:38:09.480Z,97559.97
2022-08-18T16:40:37.632Z,97564.50
2022-08-18T16:43:06.735Z,97561.78
2022-08-18T16:45:36.732Z,97562.50
2022-08-18T16:48:04.365Z,97563.41
2022-08-18T16:50:32.024Z,97561.19
2022-08-18T16:52:59.127Z,97564.59
2022-08-18T16:55:26.201Z,97564.00
2022-08-18T16:58:15.437Z,97562.84
2022-08-18T17:01:02.271Z,97566.78
2022-08-18T17:03:47.562Z,97559.75
2022-08-18T17:06:19.186Z,97552.16
2022-08-18T17:08:47.172Z,97563.59
2022-08-18T17:11:19.629Z,97564.09
2022-08-18T17:13:49.733Z,97562.06
2022-08-18T17:16:19.462Z,97553.97
2022-08-18T17:18:47.176Z,97549.47
2022-08-18T17:21:21.604Z,97559.41
2022-08-18T17:23:50.316Z,97552.69
2022-08-18T17:27:00.218Z,97550.75
2022-08-18T17:29:34.466Z,97548.25
2022-08-18T17:32:52.159Z,97547.94
2022-08-18T17:35:30.530Z,97554.47
2022-08-18T17:38:07.299Z,97559.28
2022-08-18T17:40:45.113Z,97563.47
2022-08-18T17:43:20.491Z,97563.88
2022-08-18T17:46:16.436Z,97565.28
2022-08-18T17:48:51.637Z,97564.13
2022-08-18T17:51:43.549Z,97573.44
2022-08-18T17:54:36.500Z,97574.94
2022-08-18T17:57:20.511Z,97572.69
2022-08-18T18:00:00.876Z,97582.19
2022-08-18T18:02:31.377Z,97589.38
2022-08-18T18:05:07.347Z,97588.59
2022-08-18T18:07:52.064Z,97588.25
2022-08-18T18:11:02.383Z,97592.63
2022-08-18T18:13:32.671Z,97597.31
2022-08-18T18:16:35.133Z,97603.69
2022-08-18T18:19:06.822Z,97600.13
2022-08-18T18:21:58.902Z,97598.56
2022-08-18T18:24:34.493Z,97603.53
2022-08-18T18:27:02.115Z,97603.03
2022-08-18T18:29:38.023Z,97611.28
2022-08-18T18:32:38.846Z,97607.72
2022-08-18T18:35:27.824Z,97611.84
2022-08-18T18:38:00.262Z,97614.44
2022-08-18T18:40:39.550Z,97616.34
2022-08-18T18:43:36.333Z,97609.75
2022-08-18T18:46:18.815Z,97619.47
2022-08-18T18:49:15.534Z,97623.59
2022-08-18T18:52:25.944Z,97627.88
2022-08-18T18:55:04.804Z,97624.00
2022-08-18T18:57:52.243Z,97632.34
2022-08-18T19:00:38.529Z,97638.03
2022-08-18T19:03:19.485Z,97639.50
2022-08-18T19:06:15.321Z,97648.63
2022-08-18T19:09:12.156Z,97642.34
2022-08-18T19:11:52.877Z,97646.97
2022-08-18T19:14:35.679Z,97647.88
2022-08-18T19:17:13.640Z,97647.03
2022-08-18T19:20:08.936Z,97645.13
2022-08-18T19:22:59.103Z,97654.19
2022-08-18T19:25:35.711Z,97649.50
2022-08-18T19:28:29.035Z,97651.19
2022-08-18T19:31:00.139Z,97649.72
2022-08-18T19:33:39.449Z,97653.34
2022-08-18T19:36:42.411Z,97656.50
2022-08-18T19:39:31.041Z,97651.72
2022-08-18T19:42:14.608Z,97652.84
2022-08-18T19:45:15.505Z,97662.81
2022-08-18T19:47:56.442Z,97654.91
2022-08-18T19:50:40.311Z,97653.06
2022-08-18T19:53:10.924Z,97656.53
2022-08-18T19:56:25.050Z,97665.38
2022-08-18T19:59:18.185Z,97664.78
2022-08-18T20:02:32.983Z,97667.41
2022-08-18T20:05:05.599Z,97672.09
2022-08-18T20:08:25.782Z,97677.78
2022-08-18T20:11:11.266Z,97669.81
2022-08-18T20:13:45.105Z,97675.81
2022-08-18T20:16:44.137Z,97670.09
2022-08-18T20:19:55.104Z,97673.91
2022-08-18T20:22:24.438Z,97678.66
2022-08-18T20:25:11.185Z,97680.72
2022-08-18T20:27:42.595Z,97684.47
2022-08-18T20:30:32.850Z,97687.00
2022-08-18T20:33:29.173Z,97695.53
2022-08-18T20:36:26.386Z,97697.84
2022-08-18T20:38:57.578Z,97700.34
2022-08-18T20:41:33.525Z,97691.13
2022-08-18T20:44:47.942Z,97686.56
2022-08-18T20:48:03.803Z,97684.22
2022-08-18T20:51:02.999Z,97676.06
2022-08-18T20:54:03.002Z,97681.97
2022-08-18T20:56:43.539Z,97694.63
2022-08-18T20:59:36.540Z,97692.44
2022-08-18T21:02:07.614Z,97698.06
2022-08-18T21:04:52.973Z,97697.16
2022-08-18T21:07:38.008Z,97707.22
2022-08-18T21:10:24.652Z,97704.13
2022-08-18T21:12:58.696Z,97713.22
2022-08-18T21:15:44.113Z,97704.97
2022-08-18T21:18:21.025Z,97717.91
2022-08-18T21:20:50.929Z,97721.19
2022-08-18T21:23:29.682Z,97722.28
2022-08-18T21:26:14.508Z,97721.19
2022-08-18T21:28:46.860Z,97725.84
2022-08-18T21:31:43.953Z,97727.50
2022-08-18T21:34:18.662Z,97731.50
2022-08-18T21:36:56.365Z,97721.28
2022-08-18T21:39:23.878Z,97724.72
2022-08-18T21:42:00.087Z,97719.75
2022-08-18T21:44:36.535Z,97718.00
2022-08-18T21:47:15.069Z,97713.75
2022-08-18T21:50:09.349Z,97718.16
2022-08-18T21:52:40.330Z,97724.94
2022-08-18T21:55:26.617Z,97736.56
2022-08-18T21:58:07.609Z,97741.13
2022-08-18T22:00:42.496Z,97739.59
2022-08-18T22:03:25.731Z,97740.66
2022-08-18T22:06:13.533Z,97739.06
2022-08-18T22:08:59.622Z,97734.38
2022-08-18T22:12:02.191Z,97740.88
2022-08-18T22:14:54.358Z,97740.66
2022-08-18T22:17:50.708Z,97736.69
2022-08-18T22:20:39.984Z,97742.00
2022-08-18T22:23:31.688Z,97749.47
2022-08-18T22:26:30.164Z,97740.84
2022-08-18T22:29:20.937Z,97734.03
2022-08-18T22:31:51.731Z,97730.84
2022-08-18T22:34:30.353Z,97734.06
2022-08-18T22:37:10.305Z,97741.03
2022-08-18T22:39:44.225Z,97754.34
2022-08-18T22:42:13.607Z,97754.63
2022-08-18T22:44:41.518Z,97740.13
2022-08-18T22:47:08.991Z,97737.56
2022-08-18T22:49:37.013Z,97745.69
2022-08-18T22:52:07.748Z,97748.41
2022-08-18T22:54:35.299Z,97749.03
2022-08-18T22:57:02.634Z,97747.53
2022-08-18T22:59:30.253Z,97757.88
2022-08-18T23:01:59.770Z,97760.06
2022-08-18T23:04:27.943Z,97761.00
2022-08-18T23:06:55.883Z,97756.81
2022-08-18T23:09:27.648Z,97751.94
2022-08-18T23:12:01.139Z,97752.53
2022-08-18T23:14:32.475Z,97747.88
2022-08-18T23:17:01.621Z,97755.97
2022-08-18T23:19:31.483Z,97756.59
2022-08-18T23:22:03.680Z,97761.50
2022-08-18T23:24:31.375Z,97756.88
2022-08-18T23:26:59.218Z,97760.03
2022-08-18T23:29:27.335Z,97766.00
2022-08-18T23:31:54.447Z,97756.53
2022-08-18T23:34:23.822Z,97759.38
2022-08-18T23:36:58.505Z,97750.00
2022-08-18T23:39:27.824Z,97747.53
2022-08-18T23:41:55.651Z,97747.97
2022-08-18T23:44:27.750Z,97740.53
2022-08-18T23:46:59.854Z,97734.03
2022-08-18T23:49:30.257Z,97745.63
2022-08-18T23:51:59.316Z,97736.94
2022-08-18T23:54:33.548Z,97741.03
2022-08-18T23:57:00.834Z,97736.25
2022-08-18T23:59:28.835Z,97732.97
